Time;durP1;ratioP1;P1;durP2;ratioP2;P2;SDS_P1;SDS_P2;PMS_P1;PMS_P2;Temp;Humidity;BMP_temperature;BMP_pressure;BME280_temperature;BME280_humidity;BME280_pressure;Samples;Min_cycle;Max_cycle;Signal;HPM_P1;HPM_P2
2023/06/25 00:01:06;;;;;;;6.00;5.70;;;22.10;44.40;;;;;;20500;6825;335924;-81
2023/06/25 00:03:32;;;;;;;5.80;5.40;;;22.40;43.80;;;;;;20775;6825;117402;-81
2023/06/25 00:05:57;;;;;;;6.07;5.77;;;22.20;43.60;;;;;;20561;6825;310890;-81
2023/06/25 00:08:23;;;;;;;5.73;5.33;;;22.20;43.70;;;;;;20776;6825;116973;-80
2023/06/25 00:10:49;;;;;;;6.00;5.50;;;22.10;43.70;;;;;;20779;6825;118014;-83
2023/06/25 00:13:14;;;;;;;5.70;5.32;;;21.80;43.90;;;;;;20760;6825;117086;-81
2023/06/25 00:15:40;;;;;;;5.87;5.47;;;21.60;44.20;;;;;;20574;6825;278061;-81
2023/06/25 00:18:05;;;;;;;5.43;5.07;;;21.70;44.50;;;;;;20791;6825;116940;-82
2023/06/25 00:20:31;;;;;;;5.80;5.50;;;21.70;44.20;;;;;;20581;6825;277461;-81
2023/06/25 00:22:56;;;;;;;5.47;5.07;;;21.90;44.20;;;;;;20776;6825;119194;-81
2023/06/25 00:25:26;;;;;;;5.82;5.53;;;21.80;44.00;;;;;;20572;6825;306806;-81
2023/06/25 00:27:49;;;;;;;5.50;5.10;;;21.90;44.10;;;;;;20783;6823;116320;-82
2023/06/25 00:30:15;;;;;;;5.80;5.40;;;21.70;43.80;;;;;;20575;6824;277449;-81
2023/06/25 00:32:40;;;;;;;5.40;5.10;;;21.80;44.10;;;;;;20785;6824;117412;-82
2023/06/25 00:35:06;;;;;;;5.90;5.50;;;21.70;44.10;;;;;;20550;6826;282691;-83
2023/06/25 00:37:36;;;;;;;5.77;5.47;;;21.80;44.40;;;;;;20564;6824;307710;-81
2023/06/25 00:40:00;;;;;;;6.10;5.67;;;22.00;44.10;;;;;;20776;6824;116858;-81
2023/06/25 00:42:26;;;;;;;6.43;6.03;;;21.90;44.10;;;;;;20572;6824;277265;-82
2023/06/25 00:44:53;;;;;;;5.80;5.47;;;21.90;44.10;;;;;;20767;6824;119577;-81
2023/06/25 00:47:19;;;;;;;5.70;5.30;;;21.70;44.00;;;;;;20782;6825;117580;-82
2023/06/25 00:49:44;;;;;;;6.20;5.80;;;21.40;44.30;;;;;;20571;6825;277344;-82
2023/06/25 00:52:10;;;;;;;6.07;5.70;;;21.60;44.90;;;;;;20573;6825;278956;-82
2023/06/25 00:54:37;;;;;;;6.30;5.90;;;21.80;44.60;;;;;;20565;6825;276877;-80
2023/06/25 00:57:03;;;;;;;6.10;5.80;;;22.00;44.20;;;;;;20528;6825;335560;-83
2023/06/25 00:59:27;;;;;;;6.17;5.80;;;22.20;44.10;;;;;;20564;6825;277438;-82
2023/06/25 01:01:52;;;;;;;6.17;5.80;;;22.30;43.90;;;;;;20564;6825;310409;-80
2023/06/25 01:04:19;;;;;;;5.87;5.53;;;22.00;43.60;;;;;;20776;6825;118437;-80
2023/06/25 01:06:47;;;;;;;5.23;4.73;;;22.00;43.60;;;;;;20819;6825;116006;-82
2023/06/25 01:09:10;;;;;;;5.30;5.00;;;21.60;44.80;;;;;;20802;6825;117529;-83
2023/06/25 01:11:37;;;;;;;6.18;5.70;;;21.30;44.50;;;;;;20618;6825;275908;-80
2023/06/25 01:14:03;;;;;;;5.33;5.03;;;21.30;45.00;;;;;;20833;6825;116072;-81
2023/06/25 01:16:26;;;;;;;6.23;5.73;;;21.20;45.40;;;;;;20618;6825;276996;-82
2023/06/25 01:18:51;;;;;;;5.70;5.40;;;21.30;45.20;;;;;;20783;6825;118974;-81
2023/06/25 01:21:18;;;;;;;5.30;5.00;;;20.90;45.40;;;;;;20786;6825;121435;-82
2023/06/25 01:23:43;;;;;;;6.15;5.78;;;20.80;45.30;;;;;;20560;6825;336343;-81
2023/06/25 01:26:09;;;;;;;5.65;5.35;;;21.10;45.60;;;;;;20577;6825;335409;-81
2023/06/25 01:28:36;;;;;;;5.23;4.93;;;21.40;45.10;;;;;;20773;6825;116577;-82
2023/06/25 01:31:03;;;;;;;6.20;5.80;;;21.20;44.90;;;;;;20546;6825;307406;-82
2023/06/25 01:33:27;;;;;;;6.15;5.75;;;21.40;45.60;;;;;;20566;6825;277447;-81
2023/06/25 01:35:53;;;;;;;6.15;5.80;;;21.40;44.90;;;;;;20568;6825;310196;-81
2023/06/25 01:38:20;;;;;;;6.13;5.83;;;21.60;44.70;;;;;;20561;6825;279239;-81
2023/06/25 01:40:47;;;;;;;5.53;5.17;;;21.80;44.40;;;;;;20772;6823;117227;-80
2023/06/25 01:43:12;;;;;;;5.30;5.00;;;21.50;44.60;;;;;;20759;6824;117898;-81
2023/06/25 01:45:38;;;;;;;6.00;5.60;;;21.10;45.00;;;;;;20567;6824;306463;-81
2023/06/25 01:48:05;;;;;;;5.45;5.10;;;21.10;45.20;;;;;;20784;6824;116866;-81
2023/06/25 01:50:33;;;;;;;5.53;5.17;;;21.00;45.20;;;;;;20776;6824;117474;-81
2023/06/25 01:52:58;;;;;;;5.50;5.20;;;20.70;45.40;;;;;;20755;6824;117450;-83
2023/06/25 01:55:23;;;;;;;5.68;5.37;;;20.50;45.70;;;;;;20570;6824;310609;-82
2023/06/25 01:57:49;;;;;;;5.33;5.03;;;20.70;46.10;;;;;;20777;6824;117642;-80
2023/06/25 02:00:15;;;;;;;5.97;5.57;;;20.60;45.60;;;;;;20568;6825;306027;-81
2023/06/25 02:02:40;;;;;;;5.53;5.23;;;20.80;45.50;;;;;;20772;6825;117683;-82
2023/06/25 02:05:06;;;;;;;6.03;5.72;;;20.70;45.40;;;;;;20552;6825;306841;-81
2023/06/25 02:07:32;;;;;;;5.90;5.57;;;20.70;46.00;;;;;;20785;6825;118386;-82
2023/06/25 02:09:58;;;;;;;6.00;5.70;;;20.60;45.50;;;;;;20567;6825;314597;-81
2023/06/25 02:12:23;;;;;;;5.73;5.43;;;20.80;45.80;;;;;;20786;6825;117237;-81
2023/06/25 02:14:49;;;;;;;6.50;6.10;;;20.60;45.70;;;;;;20559;6825;292972;-83
2023/06/25 02:17:17;;;;;;;5.78;5.37;;;20.70;45.80;;;;;;20770;6825;117438;-81
2023/06/25 02:19:43;;;;;;;6.22;5.82;;;20.50;45.70;;;;;;20569;6825;309794;-83
2023/06/25 02:22:08;;;;;;;6.25;5.85;;;20.60;46.10;;;;;;20771;6826;117454;-81
2023/06/25 02:24:34;;;;;;;6.47;6.07;;;20.60;46.00;;;;;;20569;6825;276082;-80
2023/06/25 02:27:00;;;;;;;6.40;6.00;;;20.80;45.50;;;;;;20542;6825;335915;-80
2023/06/25 02:29:26;;;;;;;5.37;5.07;;;20.80;45.50;;;;;;20773;6825;117211;-82
2023/06/25 02:31:51;;;;;;;5.30;5.00;;;20.60;45.60;;;;;;20772;6825;122727;-82
2023/06/25 02:34:17;;;;;;;6.30;5.90;;;20.30;46.10;;;;;;20568;6825;277932;-81
2023/06/25 02:36:42;;;;;;;6.50;6.10;;;20.40;46.20;;;;;;20561;6825;306404;-83
2023/06/25 02:39:08;;;;;;;6.80;6.40;;;20.70;45.90;;;;;;20539;6825;278319;-81
2023/06/25 02:41:34;;;;;;;6.00;5.70;;;20.80;45.70;;;;;;20560;6825;306450;-80
2023/06/25 02:43:59;;;;;;;6.37;5.97;;;21.00;45.60;;;;;;20554;6825;312257;-83
2023/06/25 02:46:25;;;;;;;6.17;5.63;;;20.80;45.50;;;;;;20778;6825;117515;-81
2023/06/25 02:48:51;;;;;;;5.70;5.40;;;20.80;45.50;;;;;;20756;6825;121552;-81
2023/06/25 02:51:16;;;;;;;6.40;5.93;;;20.40;45.90;;;;;;20562;6823;305456;-81
2023/06/25 02:53:42;;;;;;;6.50;6.10;;;20.50;46.40;;;;;;20568;6824;306840;-82
2023/06/25 02:56:08;;;;;;;6.17;5.57;;;20.70;46.10;;;;;;20823;6826;116305;-81
2023/06/25 02:58:33;;;;;;;5.43;5.13;;;20.60;45.90;;;;;;20842;6824;121195;-80
2023/06/25 03:00:59;;;;;;;5.53;5.23;;;20.20;46.20;;;;;;20817;6824;119932;-83
2023/06/25 03:03:24;;;;;;;6.90;6.50;;;19.90;46.60;;;;;;20634;6824;278901;-80
2023/06/25 03:05:50;;;;;;;6.07;5.77;;;20.10;47.10;;;;;;20627;6824;335570;-81
2023/06/25 03:08:15;;;;;;;6.25;5.70;;;20.40;46.70;;;;;;20755;6824;117412;-83
2023/06/25 03:10:41;;;;;;;6.82;6.43;;;20.30;46.50;;;;;;20569;6825;299859;-83
2023/06/25 03:13:07;;;;;;;6.40;6.00;;;20.30;46.30;;;;;;20738;6825;126770;-80
2023/06/25 03:15:32;;;;;;;6.35;5.95;;;20.20;46.40;;;;;;20561;6825;306203;-81
2023/06/25 03:17:58;;;;;;;6.07;5.73;;;20.20;46.50;;;;;;20775;6825;116838;-81
2023/06/25 03:20:24;;;;;;;6.43;6.03;;;20.10;46.40;;;;;;20542;6825;306540;-82
2023/06/25 03:22:50;;;;;;;6.70;6.30;;;20.30;46.60;;;;;;20567;6825;279986;-83
2023/06/25 03:25:15;;;;;;;6.72;6.35;;;20.50;46.10;;;;;;20544;6825;277514;-80
2023/06/25 03:27:41;;;;;;;5.57;5.23;;;20.70;45.70;;;;;;20769;6825;117020;-82
2023/06/25 03:30:06;;;;;;;6.07;5.67;;;20.50;45.90;;;;;;20772;6825;117118;-81
2023/06/25 03:32:32;;;;;;;6.67;6.27;;;20.10;46.20;;;;;;20558;6825;277923;-82
2023/06/25 03:34:59;;;;;;;6.23;5.77;;;20.20;46.30;;;;;;20757;6825;122806;-81
2023/06/25 03:37:23;;;;;;;6.33;6.03;;;20.00;46.20;;;;;;20549;6825;306456;-81
2023/06/25 03:39:49;;;;;;;6.80;6.33;;;20.10;46.50;;;;;;20566;6825;281274;-81
2023/06/25 03:42:16;;;;;;;6.70;6.30;;;20.30;46.20;;;;;;20554;6825;307453;-81
2023/06/25 03:44:44;;;;;;;5.57;5.27;;;20.50;45.80;;;;;;20771;6825;118773;-81
2023/06/25 03:47:11;;;;;;;6.12;5.82;;;20.30;46.30;;;;;;20540;6825;308185;-83
2023/06/25 03:49:36;;;;;;;5.37;5.07;;;20.30;46.20;;;;;;20766;6825;117426;-81
2023/06/25 03:52:05;;;;;;;6.20;5.70;;;20.10;46.30;;;;;;20774;6825;117461;-80
2023/06/25 03:54:27;;;;;;;5.73;5.43;;;19.80;46.70;;;;;;20755;6825;119015;-80
2023/06/25 03:56:54;;;;;;;6.03;5.73;;;19.50;47.00;;;;;;20766;6825;117497;-82
2023/06/25 03:59:20;;;;;;;5.97;5.57;;;19.30;47.30;;;;;;20785;6825;117141;-82
2023/06/25 04:01:45;;;;;;;6.57;6.18;;;19.10;47.50;;;;;;20568;6823;277944;-82
2023/06/25 04:04:12;;;;;;;6.28;5.87;;;19.90;47.40;;;;;;20576;6824;277065;-82
2023/06/25 04:06:37;;;;;;;5.77;5.20;;;19.80;47.30;;;;;;20771;6824;117867;-81
2023/06/25 04:09:03;;;;;;;5.62;5.20;;;19.90;47.10;;;;;;20727;6824;120046;-80
2023/06/25 04:11:28;;;;;;;7.10;6.60;;;19.70;47.40;;;;;;20580;6824;276230;-79
2023/06/25 04:13:55;;;;;;;5.90;5.47;;;19.90;47.20;;;;;;20748;6824;116857;-77
2023/06/25 04:16:20;;;;;;;6.30;5.90;;;19.90;47.10;;;;;;20545;6824;335652;-77
2023/06/25 04:18:46;;;;;;;6.40;6.00;;;20.00;47.30;;;;;;20480;6824;306994;-76
2023/06/25 04:21:11;;;;;;;5.50;5.20;;;20.40;47.00;;;;;;20732;6824;117167;-76
2023/06/25 04:23:37;;;;;;;6.20;5.80;;;20.30;46.70;;;;;;20546;6825;304006;-76
2023/06/25 04:26:03;;;;;;;6.43;5.95;;;20.40;46.80;;;;;;20523;6825;340400;-76
2023/06/25 04:28:28;;;;;;;6.87;6.47;;;20.70;47.00;;;;;;20543;6825;281332;-77
2023/06/25 04:30:54;;;;;;;6.65;6.25;;;20.80;45.90;;;;;;20531;6825;335889;-76
2023/06/25 04:33:20;;;;;;;7.00;6.50;;;21.00;45.70;;;;;;20557;6825;306905;-76
2023/06/25 04:35:46;;;;;;;6.53;6.13;;;21.10;45.50;;;;;;20558;6825;277070;-76
2023/06/25 04:38:13;;;;;;;6.37;5.97;;;21.30;45.20;;;;;;20552;6825;309741;-76
2023/06/25 04:40:38;;;;;;;6.30;5.90;;;21.30;45.20;;;;;;20773;6825;117149;-77
2023/06/25 04:43:04;;;;;;;5.60;5.30;;;21.10;45.40;;;;;;20757;6825;123866;-77
2023/06/25 04:45:29;;;;;;;6.30;5.80;;;20.70;45.80;;;;;;20755;6825;117636;-77
2023/06/25 04:47:55;;;;;;;5.60;5.30;;;20.40;46.30;;;;;;20766;6825;117388;-76
2023/06/25 04:50:20;;;;;;;6.65;6.25;;;20.20;46.70;;;;;;20558;6825;306820;-77
2023/06/25 04:52:47;;;;;;;6.47;6.07;;;20.30;47.10;;;;;;20565;6825;308596;-80
2023/06/25 04:55:13;;;;;;;6.00;5.50;;;20.70;46.80;;;;;;20749;6825;117952;-80
2023/06/25 04:57:38;;;;;;;6.65;6.22;;;20.60;46.70;;;;;;20559;6825;281735;-78
2023/06/25 05:00:05;;;;;;;6.67;6.07;;;20.70;47.30;;;;;;20758;6825;120124;-78
2023/06/25 05:02:31;;;;;;;5.23;4.93;;;20.60;47.30;;;;;;20741;6825;117012;-77
2023/06/25 05:04:57;;;;;;;7.05;6.65;;;20.30;47.50;;;;;;20532;6825;309682;-77
2023/06/25 05:07:22;;;;;;;6.57;6.17;;;20.40;47.60;;;;;;20537;6825;277495;-77
2023/06/25 05:09:48;;;;;;;6.97;6.40;;;20.70;47.50;;;;;;20529;6825;281399;-81
2023/06/25 05:12:18;;;;;;;6.53;6.23;;;20.90;46.80;;;;;;20477;6825;311745;-83
2023/06/25 05:15:01;;;;;;;6.07;5.67;;;21.00;46.30;;;;;;20648;6823;119129;-78
2023/06/25 05:20:35;;;;;;;5.93;5.53;;;20.40;47.20;;;;;;20705;6824;69234;-79
2023/06/25 05:23:05;;;;;;;6.07;5.70;;;20.10;47.80;;;;;;20409;6824;311801;-81
2023/06/25 05:25:35;;;;;;;6.80;6.30;;;20.20;48.60;;;;;;20465;6824;279046;-76
2023/06/25 05:28:03;;;;;;;6.40;5.90;;;20.60;48.10;;;;;;20708;6824;67266;-77
2023/06/25 05:30:29;;;;;;;6.72;6.32;;;20.60;47.80;;;;;;20543;6824;306656;-79
2023/06/25 05:32:55;;;;;;;6.68;6.28;;;20.80;47.40;;;;;;20502;6824;335041;-77
2023/06/25 05:35:20;;;;;;;7.00;6.55;;;21.00;47.10;;;;;;20548;6825;285981;-75
2023/06/25 05:37:46;;;;;;;6.10;5.80;;;21.20;46.10;;;;;;20760;6825;120350;-76
2023/06/25 05:40:13;;;;;;;6.03;5.63;;;20.90;46.80;;;;;;20740;6825;117913;-78
2023/06/25 05:42:38;;;;;;;6.17;5.80;;;20.90;46.90;;;;;;20704;6825;114404;-78
2023/06/25 05:45:04;;;;;;;6.03;5.73;;;20.70;47.30;;;;;;20743;6818;121507;-78
2023/06/25 05:47:31;;;;;;;6.37;6.00;;;20.60;47.60;;;;;;20540;6833;306060;-78
2023/06/25 05:49:57;;;;;;;6.60;6.10;;;20.90;47.80;;;;;;20572;6822;308202;-78
2023/06/25 05:52:23;;;;;;;6.85;6.25;;;21.30;47.60;;;;;;20751;6822;117240;-78
2023/06/25 05:54:48;;;;;;;6.23;5.83;;;21.40;47.40;;;;;;20547;6836;310239;-78
2023/06/25 05:57:14;;;;;;;5.83;5.37;;;21.70;47.70;;;;;;20720;6841;120486;-80
2023/06/25 05:59:39;;;;;;;6.40;6.00;;;21.70;47.50;;;;;;20544;6841;277281;-78
2023/06/25 06:02:08;;;;;;;6.40;6.10;;;22.00;47.60;;;;;;20510;6841;306748;-77
2023/06/25 06:04:32;;;;;;;5.80;5.30;;;22.40;46.80;;;;;;20749;6841;117593;-77
2023/06/25 06:06:58;;;;;;;5.43;5.13;;;22.40;46.80;;;;;;20728;6830;117050;-77
2023/06/25 06:09:24;;;;;;;6.30;6.00;;;22.60;48.10;;;;;;20539;6833;307791;-80
2023/06/25 06:11:50;;;;;;;6.60;6.10;;;23.50;46.40;;;;;;20524;6832;307222;-82
2023/06/25 06:14:16;;;;;;;6.43;5.95;;;23.50;46.90;;;;;;20540;6832;334789;-81
2023/06/25 06:16:42;;;;;;;6.23;5.80;;;24.50;45.40;;;;;;20505;6847;304497;-78
2023/06/25 06:19:07;;;;;;;6.07;5.70;;;25.40;44.00;;;;;;20756;6832;117507;-79
2023/06/25 06:21:33;;;;;;;5.73;5.40;;;26.00;44.00;;;;;;20717;6847;118690;-79
2023/06/25 06:23:58;;;;;;;5.70;5.30;;;26.30;43.80;;;;;;20732;6832;118575;-81
2023/06/25 06:26:24;;;;;;;5.30;5.00;;;26.60;43.70;;;;;;20705;6845;118044;-85
2023/06/25 06:28:49;;;;;;;6.00;5.70;;;26.90;43.20;;;;;;20531;6832;308853;-80
2023/06/25 06:31:16;;;;;;;5.80;5.50;;;27.60;39.40;;;;;;20534;6832;278037;-81
2023/06/25 06:33:41;;;;;;;6.07;5.67;;;28.40;38.30;;;;;;20767;6832;121218;-83
2023/06/25 06:36:08;;;;;;;6.07;5.67;;;28.80;38.70;;;;;;20556;6832;298479;-82
2023/06/25 06:38:34;;;;;;;6.30;5.90;;;29.30;36.70;;;;;;20555;6832;332661;-81
2023/06/25 06:40:59;;;;;;;6.10;5.80;;;29.90;35.70;;;;;;20534;6832;281612;-83
2023/06/25 06:43:25;;;;;;;6.20;5.80;;;30.50;34.60;;;;;;20557;6832;279298;-81
2023/06/25 06:45:50;;;;;;;5.73;5.50;;;30.90;33.90;;;;;;20546;6833;307841;-82
2023/06/25 06:48:17;;;;;;;5.17;4.70;;;31.30;32.80;;;;;;20769;6833;117200;-81
2023/06/25 06:50:43;;;;;;;5.47;5.18;;;31.30;33.80;;;;;;20543;6833;307498;-81
2023/06/25 06:53:08;;;;;;;5.07;4.77;;;31.60;33.10;;;;;;20738;6833;116123;-82
2023/06/25 06:55:34;;;;;;;5.17;4.87;;;31.60;33.80;;;;;;20755;6833;117646;-78
2023/06/25 06:57:59;;;;;;;6.00;5.60;;;31.60;34.30;;;;;;20540;6833;283237;-79
2023/06/25 07:00:25;;;;;;;5.50;5.10;;;32.00;32.90;;;;;;20760;6833;123238;-82
2023/06/25 07:02:55;;;;;;;5.23;5.03;;;32.50;32.10;;;;;;20534;6833;309105;-80
2023/06/25 07:05:17;;;;;;;4.97;4.67;;;32.50;32.10;;;;;;20727;6833;117831;-80
2023/06/25 07:07:44;;;;;;;5.30;5.00;;;32.60;32.50;;;;;;20761;6833;116968;-81
2023/06/25 07:10:09;;;;;;;6.15;5.75;;;32.50;32.10;;;;;;20558;6833;305568;-80
2023/06/25 07:12:35;;;;;;;6.00;5.60;;;32.70;28.90;;;;;;20550;6833;277576;-78
2023/06/25 07:15:00;;;;;;;5.87;5.47;;;33.10;29.50;;;;;;20528;6833;307984;-79
2023/06/25 07:17:26;;;;;;;5.97;5.57;;;33.40;29.60;;;;;;20550;6833;306959;-78
2023/06/25 07:19:52;;;;;;;5.70;5.40;;;33.70;29.60;;;;;;20495;6833;336995;-78
2023/06/25 07:22:17;;;;;;;5.80;5.50;;;33.80;29.10;;;;;;20755;6833;117967;-79
2023/06/25 07:24:43;;;;;;;6.33;5.83;;;33.60;29.30;;;;;;20533;6833;311394;-78
2023/06/25 07:27:08;;;;;;;6.12;5.72;;;33.50;28.40;;;;;;20525;6833;278850;-79
2023/06/25 07:29:35;;;;;;;5.40;5.13;;;33.50;27.90;;;;;;20743;6833;121703;-78
2023/06/25 07:32:01;;;;;;;5.60;5.20;;;33.30;28.80;;;;;;20746;6833;117258;-79
2023/06/25 07:34:29;;;;;;;5.73;5.30;;;32.80;29.00;;;;;;20479;6833;311266;-80
2023/06/25 07:36:54;;;;;;;5.20;4.90;;;32.70;27.80;;;;;;20676;6830;117496;-81
2023/06/25 07:39:24;;;;;;;6.10;5.53;;;32.40;28.30;;;;;;20510;6832;279596;-80
2023/06/25 07:41:49;;;;;;;5.57;5.20;;;32.40;28.40;;;;;;20677;6832;117522;-80
2023/06/25 07:44:14;;;;;;;5.75;5.45;;;32.20;28.30;;;;;;20498;6832;313185;-80
2023/06/25 07:46:40;;;;;;;6.17;5.77;;;32.10;28.20;;;;;;20505;6832;337858;-84
2023/06/25 07:49:05;;;;;;;5.47;5.17;;;32.10;28.10;;;;;;20709;6832;117624;-81
2023/06/25 07:51:31;;;;;;;6.00;5.60;;;31.80;28.50;;;;;;20546;6832;279282;-82
2023/06/25 07:53:57;;;;;;;5.40;5.10;;;31.90;28.60;;;;;;20546;6832;307924;-78
2023/06/25 07:56:23;;;;;;;5.30;5.10;;;31.90;28.80;;;;;;20551;6832;329312;-79
2023/06/25 07:58:50;;;;;;;5.65;5.35;;;32.10;28.80;;;;;;20549;6833;308929;-81
2023/06/25 08:01:15;;;;;;;5.53;5.23;;;32.20;28.60;;;;;;20724;6833;120661;-78
2023/06/25 08:03:41;;;;;;;5.43;5.12;;;32.00;29.10;;;;;;20556;6833;286503;-76
2023/06/25 08:06:08;;;;;;;5.07;4.80;;;31.80;29.10;;;;;;20750;6833;117471;-84
2023/06/25 08:08:35;;;;;;;4.87;4.50;;;31.70;29.10;;;;;;20773;6833;117205;-77
2023/06/25 08:11:00;;;;;;;5.13;4.87;;;31.50;29.40;;;;;;20756;6833;144061;-80
2023/06/25 08:13:26;;;;;;;5.37;4.97;;;31.40;29.90;;;;;;20772;6833;117229;-78
2023/06/25 08:15:52;;;;;;;5.78;5.37;;;31.20;29.90;;;;;;20542;6833;311247;-79
2023/06/25 08:18:17;;;;;;;5.97;5.67;;;31.40;29.00;;;;;;20768;6833;116111;-81
2023/06/25 08:20:46;;;;;;;5.50;5.10;;;31.50;28.90;;;;;;20549;6833;277337;-78
2023/06/25 08:23:09;;;;;;;5.73;5.23;;;31.70;28.90;;;;;;20532;6833;312400;-79
2023/06/25 08:25:35;;;;;;;5.63;5.33;;;32.10;28.40;;;;;;20539;6833;307620;-82
2023/06/25 08:28:02;;;;;;;5.80;5.40;;;32.40;28.00;;;;;;20543;6833;306822;-77
2023/06/25 08:30:27;;;;;;;5.17;4.77;;;32.50;27.30;;;;;;20720;6832;115367;-83
2023/06/25 08:32:53;;;;;;;5.47;5.00;;;32.40;27.90;;;;;;20772;6833;117450;-78
2023/06/25 08:35:22;;;;;;;4.97;4.70;;;32.10;28.10;;;;;;20591;6833;122610;-79
2023/06/25 08:37:47;;;;;;;5.03;4.63;;;31.90;28.50;;;;;;20751;6833;117111;-80
2023/06/25 08:40:13;;;;;;;5.07;4.83;;;31.80;28.30;;;;;;20747;6833;117243;-77
2023/06/25 08:42:39;;;;;;;4.97;4.67;;;31.80;28.40;;;;;;20733;6833;117896;-76
2023/06/25 08:45:04;;;;;;;6.10;5.60;;;31.70;28.60;;;;;;20502;6833;282750;-80
2023/06/25 08:47:30;;;;;;;5.37;5.00;;;32.00;28.20;;;;;;20757;6833;117772;-83
2023/06/25 08:49:56;;;;;;;5.90;5.60;;;32.20;28.20;;;;;;20493;6831;278349;-78
2023/06/25 08:52:21;;;;;;;6.50;5.93;;;32.40;27.80;;;;;;20768;6832;121269;-81
2023/06/25 08:54:47;;;;;;;5.87;5.47;;;32.40;27.80;;;;;;20541;6832;307371;-81
2023/06/25 08:57:12;;;;;;;5.73;5.43;;;32.50;28.20;;;;;;20757;6832;124376;-81
2023/06/25 08:59:38;;;;;;;6.22;5.82;;;32.60;27.90;;;;;;20567;6832;286009;-78
2023/06/25 09:02:04;;;;;;;5.53;5.23;;;32.70;27.20;;;;;;20780;6832;117027;-78
2023/06/25 09:04:30;;;;;;;5.00;4.80;;;32.70;27.40;;;;;;20774;6832;121054;-80
2023/06/25 09:06:55;;;;;;;5.93;5.53;;;32.60;27.90;;;;;;20542;6832;308051;-78
2023/06/25 09:09:21;;;;;;;6.00;5.47;;;32.90;27.70;;;;;;20727;6833;117438;-77
2023/06/25 09:11:46;;;;;;;5.60;5.30;;;33.00;27.60;;;;;;20757;6833;117231;-79
2023/06/25 09:14:12;;;;;;;5.40;5.10;;;32.90;27.60;;;;;;20750;6833;117007;-78
2023/06/25 09:16:44;;;;;;;5.13;4.83;;;32.80;27.50;;;;;;20755;6833;119029;-77
2023/06/25 09:19:17;;;;;;;5.37;4.97;;;32.70;27.20;;;;;;20724;6833;118407;-78
2023/06/25 09:21:43;;;;;;;6.37;5.93;;;32.60;27.20;;;;;;20522;6833;279345;-79
2023/06/25 09:24:15;;;;;;;5.90;5.60;;;32.90;27.20;;;;;;20534;6833;341177;-78
2023/06/25 09:26:48;;;;;;;5.83;5.43;;;33.30;27.30;;;;;;20769;6833;117173;-77
2023/06/25 09:29:13;;;;;;;5.60;5.30;;;33.40;26.50;;;;;;20733;6833;120785;-77
2023/06/25 09:31:39;;;;;;;5.57;5.27;;;33.10;26.70;;;;;;20753;6833;117305;-79
2023/06/25 09:34:06;;;;;;;5.40;5.10;;;33.10;26.70;;;;;;20750;6833;118065;-78
2023/06/25 09:36:33;;;;;;;6.07;5.77;;;33.00;26.70;;;;;;20744;6833;117265;-79
2023/06/25 09:38:56;;;;;;;5.40;5.10;;;33.00;26.60;;;;;;20491;6833;278068;-78
2023/06/25 09:41:22;;;;;;;5.10;4.80;;;33.30;25.20;;;;;;20759;6833;117351;-78
2023/06/25 09:43:49;;;;;;;5.30;5.00;;;33.40;25.30;;;;;;20523;6833;307957;-79
2023/06/25 09:46:13;;;;;;;5.00;4.70;;;33.60;24.40;;;;;;20730;6833;118587;-79
2023/06/25 09:48:39;;;;;;;5.57;5.27;;;33.60;24.20;;;;;;20744;6833;117034;-78
2023/06/25 09:51:05;;;;;;;5.07;4.77;;;33.50;24.50;;;;;;20544;6833;277613;-77
2023/06/25 09:53:32;;;;;;;4.78;4.50;;;33.50;24.20;;;;;;20796;6833;117704;-77
2023/06/25 09:55:56;;;;;;;5.17;4.77;;;33.60;24.20;;;;;;20733;6833;118456;-78
2023/06/25 09:58:21;;;;;;;5.70;5.10;;;33.50;24.40;;;;;;20756;6833;117192;-79
2023/06/25 10:00:48;;;;;;;4.70;4.50;;;33.30;24.30;;;;;;20761;6831;117050;-78
2023/06/25 10:03:13;;;;;;;5.40;5.10;;;33.30;24.20;;;;;;20520;6832;283035;-77
2023/06/25 10:05:42;;;;;;;5.23;4.93;;;33.80;23.90;;;;;;20548;6832;340760;-75
2023/06/25 10:08:05;;;;;;;4.97;4.57;;;33.80;23.30;;;;;;20712;6832;117380;-79
2023/06/25 10:10:31;;;;;;;5.10;4.80;;;33.70;23.10;;;;;;20552;6832;278118;-78
2023/06/25 10:12:59;;;;;;;5.10;4.80;;;33.70;23.30;;;;;;20737;6832;117550;-79
2023/06/25 10:15:31;;;;;;;5.30;5.00;;;33.70;23.30;;;;;;20711;6832;116265;-78
2023/06/25 10:17:59;;;;;;;4.73;4.43;;;33.60;23.60;;;;;;20736;6832;116924;-76
2023/06/25 10:20:34;;;;;;;4.93;4.60;;;33.50;23.50;;;;;;20763;6833;66509;-78
2023/06/25 10:23:09;;;;;;;5.00;4.60;;;33.50;23.60;;;;;;20738;6833;117525;-78
2023/06/25 10:25:35;;;;;;;5.30;5.00;;;33.60;23.20;;;;;;20536;6833;278356;-75
2023/06/25 10:28:14;;;;;;;5.23;4.93;;;33.60;23.20;;;;;;20541;6833;307951;-77
2023/06/25 10:30:47;;;;;;;4.80;4.60;;;33.90;23.30;;;;;;20765;6833;117504;-83
2023/06/25 10:33:14;;;;;;;5.23;4.93;;;34.00;23.10;;;;;;20735;6833;117087;-84
2023/06/25 10:35:39;;;;;;;5.07;4.67;;;33.90;23.40;;;;;;20686;6833;118776;-82
2023/06/25 10:38:05;;;;;;;5.40;5.00;;;33.70;23.30;;;;;;20735;6833;116956;-83
2023/06/25 10:40:33;;;;;;;5.47;5.17;;;33.60;23.40;;;;;;20520;6833;337049;-83
2023/06/25 10:42:58;;;;;;;5.50;5.10;;;33.70;22.80;;;;;;20707;6833;117333;-82
2023/06/25 10:45:24;;;;;;;6.97;6.43;;;33.70;23.60;;;;;;20748;6833;123030;-83
2023/06/25 10:47:50;;;;;;;5.10;4.87;;;33.50;23.50;;;;;;20759;6833;117901;-83
2023/06/25 10:50:18;;;;;;;5.33;5.13;;;33.50;23.40;;;;;;20503;6833;337009;-79
2023/06/25 10:52:44;;;;;;;5.60;5.20;;;33.50;22.30;;;;;;20542;6833;277889;-81
2023/06/25 10:55:09;;;;;;;5.60;5.30;;;33.70;23.30;;;;;;20508;6833;308300;-80
2023/06/25 10:57:36;;;;;;;5.47;5.27;;;33.90;22.70;;;;;;20566;6833;282857;-80
2023/06/25 11:00:03;;;;;;;6.07;5.78;;;34.10;23.10;;;;;;20539;6833;277892;-80
2023/06/25 11:02:28;;;;;;;5.60;5.20;;;34.40;23.10;;;;;;20488;6833;305635;-81
2023/06/25 11:04:52;;;;;;;6.23;5.87;;;34.70;22.70;;;;;;20716;6833;117312;-82
2023/06/25 11:07:21;;;;;;;6.13;5.60;;;34.50;23.10;;;;;;20699;6833;122515;-80
2023/06/25 11:09:50;;;;;;;5.37;5.00;;;34.30;23.20;;;;;;20726;6833;120138;-81
2023/06/25 11:12:11;;;;;;;5.93;5.60;;;34.10;23.30;;;;;;20724;6831;117330;-81
2023/06/25 11:14:38;;;;;;;5.75;5.45;;;33.90;23.30;;;;;;20541;6832;307956;-81
2023/06/25 11:17:02;;;;;;;5.97;5.60;;;34.00;23.60;;;;;;20722;6832;117391;-81
2023/06/25 11:19:29;;;;;;;5.47;5.17;;;34.00;23.70;;;;;;20540;6832;307569;-81
2023/06/25 11:21:54;;;;;;;6.73;6.33;;;34.20;23.10;;;;;;20745;6832;117050;-77
2023/06/25 11:24:21;;;;;;;6.00;5.50;;;34.20;23.00;;;;;;20760;6832;117818;-81
2023/06/25 11:26:48;;;;;;;5.50;5.07;;;34.10;23.00;;;;;;20751;6832;121352;-80
2023/06/25 11:29:13;;;;;;;5.83;5.47;;;33.80;23.00;;;;;;20692;6832;117807;-81
2023/06/25 11:31:48;;;;;;;6.17;5.87;;;33.70;23.40;;;;;;20513;6832;297986;-79
2023/06/25 11:34:21;;;;;;;6.00;5.60;;;33.80;23.00;;;;;;20763;6833;70664;-86
2023/06/25 11:36:48;;;;;;;6.17;5.77;;;33.50;23.20;;;;;;20746;6833;117099;-87
2023/06/25 11:39:14;;;;;;;6.70;6.32;;;33.50;23.20;;;;;;20513;6833;337507;-76
2023/06/25 11:41:39;;;;;;;6.30;5.90;;;33.50;23.60;;;;;;20540;6833;312965;-86
2023/06/25 11:44:18;;;;;;;5.93;5.57;;;33.70;23.00;;;;;;20749;6833;116994;-86
2023/06/25 11:46:41;;;;;;;6.07;5.75;;;33.70;23.00;;;;;;20502;6833;278005;-88
2023/06/25 11:49:08;;;;;;;6.00;5.60;;;33.90;23.60;;;;;;20734;6833;117278;-86
2023/06/25 11:51:33;;;;;;;7.53;7.10;;;33.80;23.50;;;;;;20533;6833;311372;-86
2023/06/25 11:53:59;;;;;;;6.10;5.60;;;33.90;23.10;;;;;;20761;6833;117021;-84
2023/06/25 11:56:26;;;;;;;5.90;5.60;;;33.90;23.10;;;;;;20753;6833;117233;-85
2023/06/25 11:58:53;;;;;;;7.20;6.00;;;33.70;23.50;;;;;;20541;6833;316416;-86
2023/06/25 12:01:19;;;;;;;6.17;5.80;;;33.70;23.00;;;;;;20743;6833;117304;-85
2023/06/25 12:03:45;;;;;;;6.93;6.43;;;33.80;23.30;;;;;;20776;6833;117644;-85
2023/06/25 12:06:11;;;;;;;6.43;6.10;;;33.70;23.30;;;;;;20559;6833;286901;-86
2023/06/25 12:08:36;;;;;;;6.40;6.10;;;33.70;23.00;;;;;;20546;6833;278938;-85
2023/06/25 12:11:02;;;;;;;6.10;5.80;;;34.00;22.60;;;;;;20527;6833;307120;-85
2023/06/25 12:13:28;;;;;;;6.57;6.27;;;34.20;22.80;;;;;;20543;6833;307586;-85
2023/06/25 12:15:56;;;;;;;6.70;6.20;;;34.20;22.40;;;;;;20520;6833;307647;-85
2023/06/25 12:18:22;;;;;;;5.80;5.50;;;34.30;23.40;;;;;;20701;6833;117417;-85
2023/06/25 12:20:45;;;;;;;6.70;6.20;;;34.20;23.40;;;;;;20508;6833;315614;-85
2023/06/25 12:23:11;;;;;;;6.50;6.10;;;34.30;22.30;;;;;;20530;6831;307231;-84
2023/06/25 12:25:38;;;;;;;6.23;5.83;;;34.20;22.20;;;;;;20750;6832;117559;-78
2023/06/25 12:28:03;;;;;;;6.87;6.37;;;34.10;22.40;;;;;;20546;6832;281835;-77
2023/06/25 12:30:30;;;;;;;5.70;5.40;;;34.10;22.50;;;;;;20755;6832;117631;-84
2023/06/25 12:32:56;;;;;;;5.70;5.30;;;33.60;22.10;;;;;;20760;6832;117169;-83
2023/06/25 12:35:22;;;;;;;6.00;5.70;;;33.60;22.00;;;;;;20753;6832;117268;-81